createdAt,value
2018-07-02T00:03:30.889Z,49.80
2018-07-02T00:06:10.681Z,49.80
2018-07-02T00:08:38.966Z,49.90
2018-07-02T00:11:07.236Z,49.90
2018-07-02T00:13:35.516Z,49.90
2018-07-02T00:16:03.816Z,50.10
2018-07-02T00:18:32.117Z,50.90
2018-07-02T00:23:28.498Z,50.10
2018-07-02T00:25:56.807Z,50.30
2018-07-02T00:28:25.144Z,50.10
2018-07-02T00:30:54.462Z,50.30
2018-07-02T00:33:22.749Z,50.40
2018-07-02T00:35:50.994Z,50.50
2018-07-02T00:38:19.679Z,50.50
2018-07-02T00:40:48.581Z,51.10
2018-07-02T00:43:16.931Z,51.00
2018-07-02T00:45:45.211Z,52.00
2018-07-02T00:48:13.530Z,52.80
2018-07-02T00:50:41.849Z,52.10
2018-07-02T00:53:10.260Z,51.30
2018-07-02T00:55:38.595Z,51.80
2018-07-02T00:58:06.880Z,53.20
2018-07-02T01:00:35.188Z,53.40
2018-07-02T01:03:03.496Z,54.40
2018-07-02T01:05:31.741Z,55.40
2018-07-02T01:07:59.982Z,55.70
2018-07-02T01:10:28.270Z,55.90
2018-07-02T01:12:56.550Z,57.10
2018-07-02T01:15:24.828Z,56.60
2018-07-02T01:17:53.114Z,57.30
2018-07-02T01:20:21.397Z,57.00
2018-07-02T01:22:49.691Z,58.10
2018-07-02T01:25:18.007Z,57.70
2018-07-02T01:30:14.311Z,59.00
2018-07-02T01:32:42.549Z,57.70
2018-07-02T01:35:10.855Z,58.40
2018-07-02T01:37:39.149Z,57.70
2018-07-02T01:40:07.439Z,58.50
2018-07-02T01:42:35.674Z,57.70
2018-07-02T01:45:03.980Z,59.30
2018-07-02T01:47:32.331Z,59.50
2018-07-02T01:50:00.712Z,59.00
2018-07-02T01:52:29.001Z,59.70
2018-07-02T01:54:57.472Z,59.70
2018-07-02T01:57:25.733Z,60.80
2018-07-02T01:59:54.121Z,60.60
2018-07-02T02:02:22.432Z,62.10
2018-07-02T02:04:50.728Z,61.80
2018-07-02T02:07:18.992Z,64.70
2018-07-02T02:09:47.272Z,63.30
2018-07-02T02:12:15.504Z,63.60
2018-07-02T02:14:43.802Z,64.00
2018-07-02T02:17:12.093Z,64.10
2018-07-02T02:19:40.361Z,65.50
2018-07-02T02:22:08.617Z,65.20
2018-07-02T02:24:36.866Z,64.70
2018-07-02T02:27:05.331Z,65.20
2018-07-02T02:32:01.616Z,65.40
2018-07-02T02:34:29.943Z,66.20
2018-07-02T02:36:58.259Z,66.40
2018-07-02T02:39:26.543Z,68.30
2018-07-02T02:41:54.820Z,68.40
2018-07-02T02:44:23.144Z,70.70
2018-07-02T02:46:51.484Z,70.80
2018-07-02T02:49:19.791Z,70.80
2018-07-02T02:51:48.115Z,72.90
2018-07-02T02:54:16.390Z,72.50
2018-07-02T02:56:44.688Z,72.90
2018-07-02T02:59:13.026Z,74.30
2018-07-02T03:01:41.345Z,73.30
2018-07-02T03:04:09.664Z,74.00
2018-07-02T03:06:37.987Z,76.60
2018-07-02T03:09:07.680Z,74.80
2018-07-02T03:11:35.948Z,76.70
2018-07-02T03:14:04.969Z,77.00
2018-07-02T03:16:33.327Z,77.40
2018-07-02T03:19:01.599Z,78.70
2018-07-02T03:21:29.877Z,79.40
2018-07-02T03:23:58.159Z,79.80
2018-07-02T03:26:26.480Z,80.00
2018-07-02T03:28:55.725Z,80.70
2018-07-02T03:33:52.079Z,83.80
2018-07-02T03:36:20.393Z,84.80
2018-07-02T03:38:48.676Z,84.10
2018-07-02T03:41:16.954Z,83.00
2018-07-02T03:43:45.245Z,83.80
2018-07-02T03:46:13.579Z,84.40
2018-07-02T03:48:41.890Z,84.80
2018-07-02T03:51:10.198Z,86.00
2018-07-02T03:53:39.162Z,86.80
2018-07-02T03:56:07.411Z,86.80
2018-07-02T03:58:35.701Z,86.80
2018-07-02T04:01:04.006Z,87.30
2018-07-02T04:03:32.264Z,86.30
2018-07-02T04:06:00.610Z,86.80
2018-07-02T04:08:28.871Z,85.10
2018-07-02T04:10:57.173Z,85.60
2018-07-02T04:13:25.452Z,88.90
2018-07-02T04:15:54.578Z,89.60
2018-07-02T04:20:50.805Z,93.00
2018-07-02T04:23:19.076Z,91.70
2018-07-02T04:25:47.370Z,91.50
2018-07-02T04:28:15.611Z,92.00
2018-07-02T04:30:43.864Z,90.10
2018-07-02T04:33:12.162Z,87.40
2018-07-02T04:35:40.442Z,91.60
2018-07-02T04:38:08.677Z,92.50
2018-07-02T04:40:36.947Z,92.60
2018-07-02T04:43:05.284Z,90.00
2018-07-02T04:45:33.571Z,83.20
2018-07-02T04:48:01.931Z,80.70
2018-07-02T04:50:30.107Z,79.40
2018-07-02T04:52:58.359Z,78.20
2018-07-02T04:55:26.614Z,77.20
2018-07-02T04:57:54.922Z,77.30
2018-07-02T05:00:23.209Z,77.30
2018-07-02T05:02:51.491Z,77.40
2018-07-02T05:05:19.747Z,77.00
2018-07-02T05:07:48.193Z,76.80
2018-07-02T05:12:44.591Z,77.20
2018-07-02T05:15:12.951Z,77.10
2018-07-02T05:17:41.238Z,77.50
2018-07-02T05:20:09.575Z,76.90
2018-07-02T05:25:05.872Z,77.30
2018-07-02T05:27:34.131Z,76.50
2018-07-02T05:30:02.392Z,76.00
2018-07-02T05:32:30.694Z,76.60
2018-07-02T05:34:59.008Z,76.30
2018-07-02T05:37:27.317Z,76.30
2018-07-02T05:39:55.637Z,75.70
2018-07-02T05:42:23.895Z,74.40
2018-07-02T05:44:52.184Z,75.10
2018-07-02T05:47:20.461Z,74.80
2018-07-02T05:49:48.715Z,74.30
2018-07-02T05:52:17.021Z,73.80
2018-07-02T05:54:45.299Z,73.00
2018-07-02T05:57:13.567Z,73.60
2018-07-02T05:59:41.843Z,72.10
2018-07-02T06:02:10.234Z,71.60
2018-07-02T06:04:38.491Z,71.40
2018-07-02T06:07:06.777Z,71.80
2018-07-02T06:09:35.069Z,69.80
2018-07-02T06:12:03.330Z,68.30
2018-07-02T06:14:31.610Z,68.00
2018-07-02T06:16:59.915Z,68.00
2018-07-02T06:19:28.291Z,66.90
2018-07-02T06:21:56.532Z,65.80
2018-07-02T06:24:24.788Z,65.20
2018-07-02T06:26:53.028Z,65.00
2018-07-02T06:31:49.391Z,65.60
2018-07-02T06:34:17.661Z,64.80
2018-07-02T06:36:45.946Z,63.70
2018-07-02T06:39:14.242Z,62.40
2018-07-02T06:41:42.536Z,63.30
2018-07-02T06:44:11.526Z,61.70
2018-07-02T06:46:39.868Z,61.40
2018-07-02T06:49:08.142Z,59.80
2018-07-02T06:51:36.535Z,58.80
2018-07-02T06:54:04.857Z,57.40
2018-07-02T06:56:33.103Z,56.10
2018-07-02T06:59:01.427Z,56.00
2018-07-02T07:06:25.961Z,54.90
2018-07-02T07:08:54.254Z,53.80
2018-07-02T07:11:22.468Z,52.60
2018-07-02T07:13:51.185Z,51.30
2018-07-02T07:16:19.463Z,51.10
2018-07-02T07:18:47.712Z,49.50
2018-07-02T07:21:16.020Z,49.00
2018-07-02T07:26:12.249Z,48.50
2018-07-02T07:28:40.518Z,47.50
2018-07-02T07:31:08.882Z,46.70
2018-07-02T07:33:37.061Z,45.50
2018-07-02T07:36:05.390Z,44.60
2018-07-02T07:38:33.651Z,44.90
2018-07-02T07:41:02.562Z,45.50
2018-07-02T07:43:30.852Z,44.50
2018-07-02T07:45:59.321Z,43.90
2018-07-02T07:48:27.641Z,44.30
2018-07-02T07:50:55.950Z,43.70
2018-07-02T07:55:52.486Z,43.70
2018-07-02T07:58:20.736Z,42.20
2018-07-02T08:00:49.028Z,41.90
2018-07-02T08:03:17.316Z,41.20
2018-07-02T08:05:45.545Z,41.00
2018-07-02T08:08:13.823Z,40.90
2018-07-02T08:10:42.081Z,41.00
2018-07-02T08:13:10.494Z,40.40
2018-07-02T08:15:38.755Z,40.00
2018-07-02T08:18:07.057Z,40.00
2018-07-02T08:20:35.285Z,39.70
2018-07-02T08:23:03.522Z,39.40
2018-07-02T08:25:32.409Z,39.00
2018-07-02T08:28:00.697Z,37.50
2018-07-02T08:32:57.069Z,38.10
2018-07-02T08:35:25.306Z,37.70
2018-07-02T08:37:53.656Z,37.50
2018-07-02T08:40:21.981Z,37.40
2018-07-02T08:42:50.220Z,36.30
2018-07-02T08:45:18.479Z,35.20
2018-07-02T08:47:46.765Z,35.60
2018-07-02T08:50:15.087Z,35.30
2018-07-02T08:52:43.411Z,35.50
2018-07-02T08:55:11.674Z,35.00
2018-07-02T08:57:39.971Z,34.30
2018-07-02T09:00:08.220Z,34.20
2018-07-02T09:02:36.488Z,34.10
2018-07-02T09:05:04.802Z,34.80
2018-07-02T09:07:33.107Z,35.10
2018-07-02T09:12:30.130Z,34.00
2018-07-02T09:14:58.230Z,31.60
2018-07-02T09:17:26.552Z,31.90
2018-07-02T09:19:54.778Z,32.00
2018-07-02T09:22:23.057Z,32.30
2018-07-02T09:24:51.327Z,30.80
2018-07-02T09:27:19.581Z,30.90
2018-07-02T09:29:47.834Z,31.70
2018-07-02T09:32:16.133Z,30.40
2018-07-02T09:34:44.421Z,29.40
2018-07-02T09:37:12.692Z,28.70
2018-07-02T09:39:40.979Z,29.00
2018-07-02T09:42:09.258Z,29.60
2018-07-02T09:44:37.515Z,29.80
2018-07-02T09:47:05.829Z,29.20
2018-07-02T09:49:34.198Z,29.70
2018-07-02T09:52:02.428Z,28.40
2018-07-02T09:54:30.749Z,28.20
2018-07-02T09:56:59.045Z,28.50
2018-07-02T10:01:55.621Z,28.10
2018-07-02T10:04:23.925Z,28.10
2018-07-02T10:06:52.188Z,28.00
2018-07-02T10:09:20.505Z,28.30
2018-07-02T10:11:48.833Z,27.60
2018-07-02T10:14:17.141Z,27.00
2018-07-02T10:16:46.250Z,26.90
2018-07-02T10:19:15.235Z,27.00
2018-07-02T10:21:43.469Z,27.10
2018-07-02T10:24:11.753Z,27.40
2018-07-02T10:26:40.604Z,26.90
2018-07-02T10:29:08.896Z,27.10
2018-07-02T10:31:37.244Z,27.10
2018-07-02T10:34:05.530Z,27.50
2018-07-02T10:36:33.873Z,27.40
2018-07-02T10:39:02.651Z,27.50
2018-07-02T10:41:30.867Z,27.00
2018-07-02T10:43:59.126Z,26.60
2018-07-02T10:46:27.399Z,27.00
2018-07-02T10:48:55.707Z,27.20
2018-07-02T10:53:52.092Z,27.70
2018-07-02T10:56:20.372Z,27.30
2018-07-02T10:58:48.634Z,27.10
2018-07-02T11:01:16.985Z,27.30
2018-07-02T11:03:45.231Z,26.40
2018-07-02T11:06:13.527Z,26.50
2018-07-02T11:08:41.833Z,25.50
2018-07-02T11:11:10.134Z,25.50
2018-07-02T11:13:38.380Z,26.00
2018-07-02T11:16:06.677Z,26.30
2018-07-02T11:18:34.986Z,26.50
2018-07-02T11:21:03.296Z,26.50
2018-07-02T11:23:31.560Z,25.80
2018-07-02T11:25:59.905Z,26.00
2018-07-02T11:28:28.260Z,25.50
2018-07-02T11:30:56.495Z,24.60
2018-07-02T11:33:24.795Z,24.80
2018-07-02T11:35:53.056Z,25.80
2018-07-02T11:38:21.315Z,25.30
2018-07-02T11:40:49.582Z,25.40
2018-07-02T11:43:17.891Z,25.60
2018-07-02T11:45:46.174Z,25.10
2018-07-02T11:50:42.545Z,26.00
2018-07-02T11:53:10.822Z,25.40
2018-07-02T11:55:39.106Z,25.00
2018-07-02T11:58:07.444Z,24.70
2018-07-02T12:00:35.736Z,24.20
2018-07-02T12:03:03.978Z,24.40
2018-07-02T12:05:32.260Z,24.90
2018-07-02T12:08:00.551Z,24.90
2018-07-02T12:12:56.818Z,25.40
2018-07-02T12:15:25.138Z,25.30
2018-07-02T12:17:53.427Z,25.20
2018-07-02T12:20:21.708Z,25.20
2018-07-02T12:22:50.271Z,24.50
2018-07-02T12:25:18.616Z,25.00
2018-07-02T12:27:47.075Z,24.50
2018-07-02T12:32:43.395Z,24.90
2018-07-02T12:35:11.720Z,25.70
2018-07-02T12:37:43.102Z,24.90
2018-07-02T12:40:11.461Z,24.90
2018-07-02T12:42:39.865Z,25.30
2018-07-02T12:45:08.148Z,25.50
2018-07-02T12:47:36.400Z,25.40
2018-07-02T12:50:04.754Z,25.60
2018-07-02T12:52:33.072Z,25.30
2018-07-02T12:55:01.416Z,25.70
2018-07-02T12:57:29.740Z,25.40
2018-07-02T12:59:58.055Z,25.70
2018-07-02T13:02:26.376Z,25.90
2018-07-02T13:04:55.472Z,27.00
2018-07-02T13:07:23.851Z,28.20
2018-07-02T13:09:52.205Z,28.60
2018-07-02T13:12:20.549Z,28.90
2018-07-02T13:14:48.927Z,29.10
2018-07-02T13:17:17.271Z,30.30
2018-07-02T13:19:45.508Z,29.30
2018-07-02T13:22:13.739Z,30.50
2018-07-02T13:24:42.002Z,29.50
2018-07-02T13:27:10.306Z,29.10
2018-07-02T13:29:38.690Z,29.90
2018-07-02T13:32:07.205Z,29.70
2018-07-02T13:34:35.497Z,30.00
2018-07-02T13:37:03.806Z,30.00
2018-07-02T13:39:32.083Z,29.50
2018-07-02T13:44:28.436Z,29.90
2018-07-02T13:46:57.162Z,29.40
2018-07-02T13:49:25.599Z,29.80
2018-07-02T13:51:53.928Z,30.00
2018-07-02T13:54:22.320Z,30.00
2018-07-02T13:56:50.568Z,31.10
2018-07-02T13:59:18.856Z,30.70
2018-07-02T14:01:47.132Z,31.00
2018-07-02T14:04:15.492Z,30.80
2018-07-02T14:06:43.810Z,30.90
2018-07-02T14:09:12.798Z,30.70
2018-07-02T14:11:41.884Z,31.00
2018-07-02T14:14:10.154Z,30.70
2018-07-02T14:16:38.610Z,30.10
2018-07-02T14:19:07.896Z,33.50
2018-07-02T14:21:36.380Z,30.50
2018-07-02T14:24:06.208Z,30.90
2018-07-02T14:26:35.561Z,30.20
2018-07-02T14:29:03.896Z,30.40
2018-07-02T14:31:32.296Z,31.00
2018-07-02T14:34:00.583Z,31.80
2018-07-02T14:36:28.849Z,32.70
2018-07-02T14:38:57.194Z,32.80
2018-07-02T14:41:25.455Z,31.30
2018-07-02T14:43:53.817Z,32.30
2018-07-02T14:46:22.108Z,32.90
2018-07-02T14:48:50.516Z,31.50
2018-07-02T14:51:18.752Z,32.80
2018-07-02T14:56:15.051Z,32.40
2018-07-02T14:58:43.318Z,32.00
2018-07-02T15:01:11.605Z,33.00
2018-07-02T15:03:39.937Z,32.30
2018-07-02T15:06:08.215Z,33.00
2018-07-02T15:08:36.484Z,32.00
2018-07-02T15:11:04.778Z,32.20
2018-07-02T15:13:33.072Z,31.80
2018-07-02T15:16:01.342Z,30.70
2018-07-02T15:18:29.611Z,31.10
2018-07-02T15:20:57.862Z,31.10
2018-07-02T15:25:54.207Z,30.70
2018-07-02T15:30:50.558Z,30.30
2018-07-02T15:33:18.892Z,31.20
2018-07-02T15:35:47.229Z,31.30
2018-07-02T15:38:15.505Z,31.20
2018-07-02T15:40:43.926Z,32.10
2018-07-02T15:43:12.256Z,30.70
2018-07-02T15:45:40.571Z,31.30
2018-07-02T15:48:08.835Z,31.10
2018-07-02T15:50:37.469Z,30.10
2018-07-02T15:53:06.354Z,30.50
2018-07-02T15:55:34.660Z,30.90
2018-07-02T15:58:03.554Z,30.70
2018-07-02T16:00:32.152Z,30.30
2018-07-02T16:03:00.468Z,30.70
2018-07-02T16:05:28.740Z,30.70
2018-07-02T16:07:56.960Z,30.90
2018-07-02T16:10:25.346Z,30.50
2018-07-02T16:12:53.607Z,30.80
2018-07-02T16:15:21.833Z,30.70
2018-07-02T16:17:50.143Z,30.20
2018-07-02T16:20:19.198Z,31.30
2018-07-02T16:22:47.529Z,31.20
2018-07-02T16:25:15.804Z,30.90
2018-07-02T16:30:12.185Z,31.50
2018-07-02T16:32:40.471Z,30.60
2018-07-02T16:35:08.707Z,30.80
2018-07-02T16:37:36.968Z,30.70
2018-07-02T16:47:29.518Z,31.40
2018-07-02T16:49:57.795Z,31.40
2018-07-02T16:52:26.098Z,31.30
2018-07-02T16:54:55.451Z,30.90
2018-07-02T16:57:23.803Z,31.60
2018-07-02T16:59:52.067Z,31.70
2018-07-02T17:02:20.400Z,31.70
2018-07-02T17:04:48.649Z,32.20
2018-07-02T17:07:16.961Z,31.40
2018-07-02T17:09:45.166Z,31.80
2018-07-02T17:12:13.465Z,31.30
2018-07-02T17:14:41.748Z,31.60
2018-07-02T17:17:10.111Z,33.70
2018-07-02T17:19:38.461Z,33.50
2018-07-02T17:22:06.792Z,33.70
2018-07-02T17:24:35.120Z,32.80
2018-07-02T17:27:03.380Z,33.90
2018-07-02T17:29:31.692Z,33.60
2018-07-02T17:32:00.008Z,31.60
2018-07-02T17:34:28.281Z,32.10
2018-07-02T17:36:56.558Z,33.30
2018-07-02T17:39:24.843Z,33.60
2018-07-02T17:41:53.119Z,33.70
2018-07-02T17:44:21.375Z,32.40
2018-07-02T17:46:49.701Z,32.70
2018-07-02T17:49:17.935Z,32.60
2018-07-02T17:51:46.215Z,32.60
2018-07-02T17:54:14.451Z,33.20
2018-07-02T18:01:39.128Z,35.60
2018-07-02T18:04:07.656Z,35.00
2018-07-02T18:06:36.397Z,34.80
2018-07-02T18:09:08.167Z,39.00
2018-07-02T18:11:36.492Z,38.50
2018-07-02T18:14:04.879Z,37.70
2018-07-02T18:16:33.124Z,39.10
2018-07-02T18:19:01.451Z,38.80
2018-07-02T18:21:29.838Z,39.90
2018-07-02T18:23:58.306Z,40.00
2018-07-02T18:26:26.741Z,41.60
2018-07-02T18:28:55.100Z,43.20
2018-07-02T18:31:23.394Z,41.80
2018-07-02T18:33:51.689Z,42.30
2018-07-02T18:38:48.129Z,41.80
2018-07-02T18:41:16.422Z,42.30
2018-07-02T18:43:44.770Z,42.20
2018-07-02T18:46:13.079Z,42.70
2018-07-02T18:48:41.401Z,42.90
2018-07-02T18:51:10.070Z,43.30
2018-07-02T18:53:38.349Z,43.40
2018-07-02T18:56:06.698Z,43.10
2018-07-02T18:58:34.979Z,43.70
2018-07-02T19:01:03.333Z,43.30
2018-07-02T19:05:59.757Z,44.30
2018-07-02T19:08:28.099Z,44.10
2018-07-02T19:10:56.592Z,44.30
2018-07-02T19:13:24.902Z,44.30
2018-07-02T19:15:53.187Z,45.40
2018-07-02T19:18:21.472Z,44.70
2018-07-02T19:20:50.124Z,45.20
2018-07-02T19:23:19.275Z,45.70
2018-07-02T19:25:47.554Z,46.00
2018-07-02T19:28:15.924Z,45.90
2018-07-02T19:30:44.624Z,46.20
2018-07-02T19:33:13.459Z,46.50
2018-07-02T19:35:41.817Z,47.10
2018-07-02T19:38:10.078Z,47.20
2018-07-02T19:40:38.455Z,46.80
2018-07-02T19:43:07.192Z,47.70
2018-07-02T19:45:35.493Z,46.90
2018-07-02T19:48:03.925Z,47.10
2018-07-02T19:50:32.583Z,47.80
2018-07-02T19:53:01.241Z,47.70
2018-07-02T19:55:29.471Z,47.80
2018-07-02T19:57:57.811Z,47.80
2018-07-02T20:00:26.139Z,47.90
2018-07-02T20:02:54.516Z,48.10
2018-07-02T20:05:22.859Z,47.90
2018-07-02T20:07:51.159Z,48.20
2018-07-02T20:10:19.472Z,48.30
2018-07-02T20:12:47.811Z,48.70
2018-07-02T20:15:16.125Z,48.70
2018-07-02T20:17:44.437Z,48.90
2018-07-02T20:20:12.927Z,49.40
2018-07-02T20:22:41.250Z,48.90
2018-07-02T20:25:09.776Z,48.80
2018-07-02T20:27:38.484Z,49.20
2018-07-02T20:30:07.695Z,48.90
2018-07-02T20:32:36.130Z,49.10
2018-07-02T20:35:04.536Z,49.10
2018-07-02T20:37:32.831Z,49.50
2018-07-02T20:40:01.120Z,49.50
2018-07-02T20:42:29.419Z,49.50
2018-07-02T20:44:57.720Z,49.70
2018-07-02T20:49:54.170Z,50.10
2018-07-02T20:52:22.553Z,50.40
2018-07-02T20:54:50.799Z,50.50
2018-07-02T20:57:19.050Z,50.40
2018-07-02T20:59:47.385Z,50.60
2018-07-02T21:02:15.616Z,50.70
2018-07-02T21:04:43.933Z,50.70
2018-07-02T21:07:12.246Z,50.70
2018-07-02T21:09:40.534Z,50.60
2018-07-02T21:12:08.871Z,50.90
2018-07-02T21:14:37.277Z,50.90
2018-07-02T21:17:05.549Z,51.30
2018-07-02T21:19:33.878Z,51.40
2018-07-02T21:22:02.144Z,51.50
2018-07-02T21:24:30.554Z,51.60
2018-07-02T21:26:58.888Z,51.80
2018-07-02T21:29:27.150Z,52.10
2018-07-02T21:31:55.459Z,52.20
2018-07-02T21:34:23.733Z,52.50
2018-07-02T21:39:20.102Z,52.80
2018-07-02T21:41:48.376Z,52.90
2018-07-02T21:44:16.699Z,53.00
2018-07-02T21:46:44.984Z,53.10
2018-07-02T21:49:13.303Z,53.10
2018-07-02T21:51:41.581Z,53.00
2018-07-02T21:54:09.840Z,53.30
2018-07-02T21:56:38.087Z,53.30
2018-07-02T21:59:06.400Z,53.60
2018-07-02T22:01:34.654Z,53.90
2018-07-02T22:04:02.958Z,54.00
2018-07-02T22:06:31.197Z,54.40
2018-07-02T22:08:59.457Z,54.90
2018-07-02T22:11:27.750Z,55.10
2018-07-02T22:13:56.043Z,55.00
2018-07-02T22:16:24.333Z,55.50
2018-07-02T22:18:52.572Z,55.60
2018-07-02T22:21:20.831Z,55.90
2018-07-02T22:23:49.099Z,56.10
2018-07-02T22:26:17.382Z,56.30
2018-07-02T22:28:45.704Z,56.50
2018-07-02T22:33:42.002Z,56.90
2018-07-02T22:36:10.298Z,57.10
2018-07-02T22:38:38.573Z,57.10
2018-07-02T22:41:06.875Z,57.30
2018-07-02T22:46:03.191Z,57.60
2018-07-02T22:48:31.515Z,57.70
2018-07-02T22:50:59.806Z,57.90
2018-07-02T22:53:28.127Z,57.70
2018-07-02T22:55:59.741Z,58.30
2018-07-02T22:58:28.019Z,57.80
2018-07-02T23:00:56.685Z,58.30
2018-07-02T23:03:25.007Z,58.60
2018-07-02T23:05:53.301Z,57.80
2018-07-02T23:08:21.568Z,57.90
2018-07-02T23:10:49.895Z,58.00
2018-07-02T23:13:18.151Z,58.20
2018-07-02T23:15:46.651Z,59.10
2018-07-02T23:18:14.970Z,59.00
2018-07-02T23:20:43.255Z,58.80
2018-07-02T23:23:11.536Z,59.30
2018-07-02T23:25:39.866Z,59.80
2018-07-02T23:28:08.231Z,62.70
2018-07-02T23:30:36.450Z,61.90
2018-07-02T23:33:04.800Z,62.40
2018-07-02T23:35:33.035Z,63.30
2018-07-02T23:40:29.330Z,64.90
2018-07-02T23:42:57.540Z,68.80
2018-07-02T23:45:25.828Z,66.60
2018-07-02T23:47:54.071Z,69.50
2018-07-02T23:50:22.376Z,70.40
2018-07-02T23:52:50.666Z,71.90
2018-07-02T23:55:18.948Z,70.50
